createdAt,value
2018-03-06T00:00:02.619Z,-0.7
2018-03-06T00:15:02.962Z,-0.7
2018-03-06T00:30:02.398Z,-0.7
2018-03-06T00:45:02.701Z,-0.8
2018-03-06T01:00:02.995Z,-0.6
2018-03-06T01:15:02.318Z,-0.6
2018-03-06T01:30:02.344Z,-0.7
2018-03-06T01:45:02.615Z,-0.7
2018-03-06T02:00:03.003Z,-0.7
2018-03-06T02:15:02.312Z,-0.6
2018-03-06T02:30:02.877Z,-0.6
2018-03-06T02:45:03.171Z,-0.6
2018-03-06T03:00:02.454Z,-0.6
2018-03-06T03:15:02.767Z,-0.6
2018-03-06T03:30:03.087Z,-0.6
2018-03-06T03:45:02.516Z,-0.6
2018-03-06T04:00:02.745Z,-0.5
2018-03-06T04:15:03.082Z,-0.5
2018-03-06T04:30:02.505Z,-0.5
2018-03-06T04:45:02.789Z,-0.4
2018-03-06T05:00:03.167Z,-0.4
2018-03-06T05:15:02.549Z,-0.4
2018-03-06T05:30:02.975Z,-0.5
2018-03-06T05:45:02.384Z,-0.5
2018-03-06T06:00:02.684Z,-0.5
2018-03-06T06:15:02.926Z,-0.5
2018-03-06T06:30:02.447Z,-0.4
2018-03-06T06:45:02.770Z,-0.1
2018-03-06T07:00:03.036Z,-0.1
2018-03-06T07:15:02.322Z,0.1
2018-03-06T07:30:02.734Z,0.3
2018-03-06T07:45:02.986Z,0.6
2018-03-06T08:00:02.353Z,0.8
2018-03-06T08:15:02.686Z,1
2018-03-06T08:30:03.129Z,1.4
2018-03-06T08:45:02.491Z,1.9
2018-03-06T09:00:02.735Z,2
2018-03-06T09:15:03.121Z,2.4
2018-03-06T09:30:02.440Z,2.5
2018-03-06T09:45:02.710Z,2.6
2018-03-06T10:00:02.997Z,2.8
2018-03-06T10:15:02.440Z,2.9
2018-03-06T10:30:02.778Z,2.9
2018-03-06T10:45:03.122Z,3.2
2018-03-06T11:00:02.679Z,3.2
2018-03-06T11:15:02.927Z,3.2
2018-03-06T11:30:02.312Z,3.2
2018-03-06T11:45:02.657Z,3.3
2018-03-06T12:00:02.978Z,2.8
2018-03-06T12:15:02.331Z,2.7
2018-03-06T12:30:02.710Z,3
2018-03-06T12:45:03.179Z,2.9
2018-03-06T13:00:02.591Z,3.4
2018-03-06T13:15:02.848Z,3.2
2018-03-06T13:30:03.330Z,3.1
2018-03-06T13:45:02.645Z,3.2
2018-03-06T14:00:02.894Z,3.6
2018-03-06T14:15:03.166Z,3.5
2018-03-06T14:30:02.562Z,3.6
2018-03-06T14:45:02.866Z,3.6
2018-03-06T15:00:03.142Z,3.4
2018-03-06T15:15:02.476Z,3.5
2018-03-06T15:30:02.885Z,3.3
2018-03-06T15:45:03.138Z,3.2
2018-03-06T16:00:02.490Z,3
2018-03-06T16:15:02.718Z,2.8
2018-03-06T16:30:03.080Z,2.6
2018-03-06T16:45:02.459Z,2.6
2018-03-06T17:00:02.724Z,2.4
2018-03-06T17:15:02.930Z,2.2
2018-03-06T17:30:02.249Z,2.1
2018-03-06T17:45:02.523Z,1.9
2018-03-06T18:00:02.830Z,1.6
2018-03-06T18:15:03.039Z,1.8
2018-03-06T18:30:02.391Z,1.7
2018-03-06T18:45:02.637Z,1.6
2018-03-06T19:00:02.912Z,1.6
2018-03-06T19:15:03.199Z,1.5
2018-03-06T19:30:02.507Z,1.4
2018-03-06T19:45:02.858Z,1.4
2018-03-06T20:00:03.130Z,1.3
2018-03-06T20:15:02.456Z,1.3
2018-03-06T20:30:02.891Z,1.2
2018-03-06T20:45:03.171Z,1.3
2018-03-06T21:00:02.418Z,1.5
2018-03-06T21:15:02.699Z,1.8
2018-03-06T21:30:03.006Z,1.9
2018-03-06T21:45:02.302Z,1.9
2018-03-06T22:00:02.511Z,1.9
2018-03-06T22:15:02.758Z,1.7
2018-03-06T22:30:03.120Z,1.6
2018-03-06T22:45:02.394Z,1.5
2018-03-06T23:00:02.616Z,1.3
2018-03-06T23:15:02.886Z,1.3
2018-03-06T23:30:02.331Z,1.3
2018-03-06T23:45:02.661Z,1.2
